Time;durP1;ratioP1;P1;durP2;ratioP2;P2;SDS_P1;SDS_P2;PMS_P1;PMS_P2;Temp;Humidity;BMP_temperature;BMP_pressure;BME280_temperature;BME280_humidity;BME280_pressure;Samples;Min_cycle;Max_cycle;Signal;HPM_P1;HPM_P2
2022/11/02 00:02:25;;;;;;;9.13;1.48;;;;;;;11.31;92.97;100886.56;5159357;28;20053;-75
2022/11/02 00:04:56;;;;;;;7.57;1.25;;;;;;;11.28;93.15;100880.59;5159313;28;20030;-75
2022/11/02 00:07:26;;;;;;;9.35;1.48;;;;;;;11.23;93.65;100887.72;5156904;28;20038;-75
2022/11/02 00:09:56;;;;;;;7.28;1.52;;;;;;;11.27;93.45;100884.13;5158877;28;20404;-75
2022/11/02 00:12:26;;;;;;;11.50;1.65;;;;;;;11.33;93.14;100879.53;5159326;28;20068;-75
2022/11/02 00:14:57;;;;;;;8.35;1.10;;;;;;;11.43;93.20;100875.69;5160127;28;20037;-76
2022/11/02 00:17:28;;;;;;;8.20;1.30;;;;;;;11.43;92.88;100886.16;5162985;28;20034;-75
2022/11/02 00:19:58;;;;;;;11.68;1.70;;;;;;;11.56;92.42;100866.53;5163847;28;20277;-75
2022/11/02 00:22:30;;;;;;;10.00;1.55;;;;;;;11.58;91.81;100879.59;5163731;28;20670;-75
2022/11/02 00:25:05;;;;;;;13.52;1.80;;;;;;;11.63;91.29;100869.81;5163509;28;20030;-75
2022/11/02 00:27:35;;;;;;;8.70;1.58;;;;;;;11.65;91.57;100871.44;5161914;28;20332;-75
2022/11/02 00:30:07;;;;;;;12.02;1.45;;;;;;;11.53;92.75;100873.59;5163009;28;20066;-75
2022/11/02 00:32:37;;;;;;;10.88;1.42;;;;;;;11.55;92.17;100858.69;5162835;28;20081;-74
2022/11/02 00:35:09;;;;;;;12.77;1.70;;;;;;;11.52;92.03;100858.81;5163005;28;20031;-75
2022/11/02 00:37:39;;;;;;;7.70;1.60;;;;;;;11.60;91.71;100852.44;5162575;28;20678;-75
2022/11/02 00:40:10;;;;;;;12.30;1.52;;;;;;;11.70;90.31;100852.97;5163474;28;20050;-75
2022/11/02 00:42:40;;;;;;;9.57;1.67;;;;;;;11.69;90.25;100852.13;5163503;28;20030;-75
2022/11/02 00:45:10;;;;;;;8.98;1.75;;;;;;;11.65;91.18;100849.66;5163730;28;20034;-75
2022/11/02 00:47:41;;;;;;;10.32;1.40;;;;;;;11.68;90.41;100850.41;5162906;28;20026;-75
2022/11/02 00:50:11;;;;;;;9.15;1.70;;;;;;;11.74;90.76;100855.44;5163245;28;20512;-75
2022/11/02 00:52:41;;;;;;;11.50;1.70;;;;;;;11.73;91.02;100853.72;5162678;28;20026;-75
2022/11/02 00:55:11;;;;;;;12.52;1.50;;;;;;;11.68;91.14;100853.03;5162583;28;21126;-76
2022/11/02 00:57:43;;;;;;;11.40;1.50;;;;;;;11.81;91.26;100845.59;5162817;28;20034;-75
2022/11/02 01:00:14;;;;;;;13.30;1.80;;;;;;;11.76;91.10;100848.38;5162883;28;20377;-75
2022/11/02 01:02:44;;;;;;;5.43;1.40;;;;;;;11.80;91.42;100849.13;5161654;28;20077;-75
2022/11/02 01:05:15;;;;;;;9.45;1.58;;;;;;;11.71;91.88;100839.84;5161436;28;20030;-75
2022/11/02 01:07:45;;;;;;;12.93;1.67;;;;;;;11.80;91.06;100844.72;5162114;28;20457;-75
2022/11/02 01:10:15;;;;;;;9.02;1.48;;;;;;;11.77;90.64;100844.84;5162786;28;20257;-75
2022/11/02 01:12:45;;;;;;;12.88;1.80;;;;;;;11.83;91.10;100826.31;5177674;28;20022;-76
2022/11/02 01:15:16;;;;;;;11.05;1.58;;;;;;;11.92;90.97;100818.09;5162330;28;20113;-75
2022/11/02 01:17:46;;;;;;;10.13;1.50;;;;;;;11.82;90.65;100826.34;5177201;28;20034;-75
2022/11/02 01:20:16;;;;;;;8.10;1.52;;;;;;;11.87;91.16;100816.53;5162603;28;20125;-75
2022/11/02 01:22:47;;;;;;;13.02;1.70;;;;;;;11.90;90.79;100811.19;5162630;28;20018;-76
2022/11/02 01:25:17;;;;;;;11.55;1.88;;;;;;;11.89;90.68;100805.13;5162462;28;20292;-75
2022/11/02 01:27:47;;;;;;;11.27;1.60;;;;;;;11.88;90.80;100803.41;5161478;28;20030;-76
2022/11/02 01:30:17;;;;;;;9.07;1.33;;;;;;;11.83;91.44;100812.34;5162405;28;20492;-75
2022/11/02 01:32:48;;;;;;;11.13;1.85;;;;;;;11.87;90.88;100811.31;5162326;28;20774;-75
2022/11/02 01:35:18;;;;;;;11.82;1.83;;;;;;;11.86;90.86;100818.31;5156595;28;20069;-75
2022/11/02 01:37:48;;;;;;;10.55;1.50;;;;;;;11.86;90.49;100817.47;5155846;28;20038;-75
2022/11/02 01:40:18;;;;;;;8.93;1.98;;;;;;;11.85;91.06;100819.25;5160704;28;20463;-76
2022/11/02 01:42:49;;;;;;;8.32;1.65;;;;;;;11.81;90.60;100824.63;5161167;28;20026;-75
2022/11/02 01:45:19;;;;;;;9.68;2.00;;;;;;;11.81;90.98;100819.41;5161788;28;20069;-75
2022/11/02 01:47:49;;;;;;;12.43;1.30;;;;;;;11.77;91.05;100816.03;5161706;28;20029;-75
2022/11/02 01:50:24;;;;;;;12.10;1.67;;;;;;;11.66;91.55;100815.59;5160829;28;20369;-75
2022/11/02 01:52:54;;;;;;;10.65;1.80;;;;;;;11.69;91.22;100820.72;5157928;28;20480;-76
2022/11/02 01:55:29;;;;;;;9.95;1.48;;;;;;;11.63;92.48;100820.06;5161774;28;20057;-75
2022/11/02 01:58:05;;;;;;;6.18;1.40;;;;;;;11.63;91.70;100810.44;5161339;28;20037;-75
2022/11/02 02:00:37;;;;;;;9.07;1.90;;;;;;;11.62;92.83;100810.50;5161359;28;20030;-75
2022/11/02 02:03:11;;;;;;;9.32;1.40;;;;;;;11.50;92.89;100806.53;5160448;28;20332;-75
2022/11/02 02:06:03;;;;;;;11.43;1.85;;;;;;;11.53;92.69;100809.03;5161926;28;20034;-75
2022/11/02 02:08:37;;;;;;;12.50;1.88;;;;;;;11.45;93.23;100792.75;5159373;28;20527;-75
2022/11/02 02:11:27;;;;;;;10.30;1.70;;;;;;;11.43;92.96;100786.72;5161496;28;20556;-75
2022/11/02 02:14:03;;;;;;;11.98;1.73;;;;;;;11.48;93.88;100784.78;5158258;28;20022;-75
2022/11/02 02:16:44;;;;;;;;;;;;;;;11.42;93.54;100787.63;5161432;28;20049;-75
2022/11/02 02:19:49;;;;;;;13.32;1.85;;;;;;;11.40;94.88;100781.59;5161348;28;19914;-75
2022/11/02 02:22:37;;;;;;;10.18;1.67;;;;;;;11.38;94.38;100778.19;5166503;28;20042;-75
2022/11/02 02:25:35;;;;;;;9.98;1.67;;;;;;;11.39;94.64;100772.03;5159350;28;20100;-76
2022/11/02 02:28:26;;;;;;;11.50;2.15;;;;;;;11.38;94.95;100775.56;5158799;28;20034;-75
2022/11/02 02:31:20;;;;;;;15.55;2.00;;;;;;;11.42;94.82;100773.69;5158009;28;20456;-75
2022/11/02 02:33:59;;;;;;;12.82;1.70;;;;;;;11.44;95.08;100767.47;5159845;28;20548;-75
2022/11/02 02:36:37;;;;;;;10.80;1.52;;;;;;;11.49;95.14;100760.34;5159110;28;20116;-75
2022/11/02 02:39:17;;;;;;;11.00;2.00;;;;;;;11.43;94.92;100757.91;5160229;28;20030;-75
2022/11/02 02:42:08;;;;;;;11.63;1.73;;;;;;;11.50;94.20;100769.91;5160381;28;20081;-75
2022/11/02 02:44:50;;;;;;;13.95;1.95;;;;;;;11.56;94.85;100766.22;5160896;28;20077;-75
2022/11/02 02:47:26;;;;;;;11.77;1.63;;;;;;;11.51;95.07;100768.97;5160793;28;20033;-75
2022/11/02 02:50:10;;;;;;;14.63;1.70;;;;;;;11.54;95.22;100763.63;5157598;28;20030;-75
2022/11/02 02:52:42;;;;;;;9.90;1.40;;;;;;;11.46;96.18;100776.13;5161098;28;20106;-75
2022/11/02 02:55:17;;;;;;;12.95;1.60;;;;;;;11.49;95.93;100777.78;5160890;28;20069;-75
2022/11/02 02:57:48;;;;;;;9.52;1.92;;;;;;;11.48;96.38;100773.47;5159433;28;20033;-75
2022/11/02 03:00:19;;;;;;;14.65;1.58;;;;;;;11.51;96.72;100774.22;5160396;28;20108;-75
2022/11/02 03:05:36;;;;;;;13.55;1.80;;;;;;;11.53;96.34;100767.16;5197396;28;20053;-73
2022/11/02 03:08:11;;;;;;;8.90;1.23;;;;;;;11.45;96.16;100755.25;5194893;28;20037;-71
2022/11/02 03:11:04;;;;;;;11.30;1.77;;;;;;;11.31;96.56;100765.38;5199842;28;20025;-74
2022/11/02 03:14:20;;;;;;;9.27;1.42;;;;;;;11.23;97.81;100757.78;5198320;28;20231;-74
2022/11/02 03:17:07;;;;;;;9.63;1.40;;;;;;;11.15;97.92;100759.84;5193612;28;20600;-73
2022/11/02 03:19:52;;;;;;;15.30;1.50;;;;;;;11.05;97.64;100762.78;5198369;28;20045;-74
2022/11/02 03:22:32;;;;;;;11.77;1.90;;;;;;;11.00;97.99;100758.66;5200800;28;20059;-74
2022/11/02 03:25:15;;;;;;;12.15;1.80;;;;;;;10.95;98.95;100761.41;5198513;28;20460;-74
2022/11/02 03:27:48;;;;;;;13.10;2.10;;;;;;;10.95;100.00;100756.19;5200142;28;20033;-73
2022/11/02 03:30:21;;;;;;;7.63;1.20;;;;;;;10.98;100.00;100763.03;5200635;28;20022;-73
2022/11/02 03:33:13;;;;;;;11.80;1.75;;;;;;;11.10;99.49;100756.50;5199132;28;20495;-73
2022/11/02 03:36:07;;;;;;;12.52;1.83;;;;;;;11.16;100.00;100758.91;5199545;28;20451;-74
2022/11/02 03:38:50;;;;;;;12.93;2.28;;;;;;;11.46;98.63;100760.41;5199782;28;20017;-73
2022/11/02 03:41:23;;;;;;;10.88;1.58;;;;;;;11.55;97.53;100751.38;5200665;28;20079;-73
2022/11/02 03:44:01;;;;;;;13.20;1.88;;;;;;;11.70;96.88;100762.19;5195955;28;20572;-73
2022/11/02 03:46:35;;;;;;;9.32;1.85;;;;;;;11.89;95.36;100757.97;5199210;28;20029;-73
2022/11/02 03:49:09;;;;;;;8.63;1.38;;;;;;;11.96;94.96;100759.44;5197277;28;20116;-74
2022/11/02 03:51:43;;;;;;;10.32;1.35;;;;;;;12.05;93.96;100761.72;5199600;28;20032;-74
2022/11/02 03:54:56;;;;;;;11.68;1.50;;;;;;;12.12;93.97;100757.09;5199907;28;20029;-72
2022/11/02 03:57:33;;;;;;;12.02;1.92;;;;;;;12.26;93.03;100760.88;5196682;28;20194;-73
2022/11/02 04:00:20;;;;;;;9.98;1.45;;;;;;;12.29;92.64;100760.75;5200175;28;20402;-73
2022/11/02 04:02:59;;;;;;;7.65;1.50;;;;;;;12.30;93.06;100762.44;5199446;28;20033;-74
2022/11/02 04:05:31;;;;;;;8.75;1.60;;;;;;;12.39;92.66;100762.09;5197278;28;20489;-74
2022/11/02 04:08:21;;;;;;;15.20;1.50;;;;;;;12.33;92.61;100771.97;5199122;28;20025;-73
2022/11/02 04:16:30;;;;;;;9.68;1.40;;;;;;;12.40;92.93;100781.28;5199226;28;20594;-73
2022/11/02 04:27:27;;;;;;;9.27;1.58;;;;;;;12.49;92.66;100773.91;5198808;28;20029;-73
2022/11/02 04:29:57;;;;;;;8.98;1.60;;;;;;;12.41;92.12;100775.13;5199769;28;20029;-74
2022/11/02 04:35:16;;;;;;;9.48;1.45;;;;;;;12.32;93.79;100776.34;5199282;28;20033;-74
2022/11/02 04:40:35;;;;;;;12.15;1.55;;;;;;;12.31;93.39;100790.34;5199407;28;20510;-74
2022/11/02 04:43:05;;;;;;;6.40;1.45;;;;;;;12.22;94.45;100776.75;5199901;28;20035;-73
2022/11/02 04:45:36;;;;;;;12.65;1.73;;;;;;;12.30;93.36;100777.34;5200053;28;20032;-74
2022/11/02 04:48:08;;;;;;;9.90;1.67;;;;;;;12.39;92.42;100780.44;5215185;28;20481;-72
2022/11/02 04:50:38;;;;;;;8.75;1.45;;;;;;;12.36;94.15;100783.19;5198275;28;20065;-74
2022/11/02 04:53:08;;;;;;;13.68;1.85;;;;;;;12.32;93.49;100789.44;5197708;28;20057;-74
2022/11/02 04:55:39;;;;;;;13.52;1.77;;;;;;;12.40;93.37;100786.53;5200075;28;20072;-74
2022/11/02 04:58:09;;;;;;;13.13;2.38;;;;;;;12.40;92.75;100790.00;5199333;28;20030;-73
2022/11/02 05:00:39;;;;;;;10.95;1.88;;;;;;;12.48;93.42;100781.84;5199538;28;20112;-74
2022/11/02 05:03:09;;;;;;;9.15;1.58;;;;;;;12.48;92.83;100776.59;5201516;28;20038;-73
2022/11/02 05:05:40;;;;;;;9.15;1.70;;;;;;;12.51;92.85;100781.72;5203691;28;20387;-73
2022/11/02 05:08:10;;;;;;;14.73;1.77;;;;;;;12.47;92.90;100785.38;5202722;28;20056;-72
2022/11/02 05:10:40;;;;;;;12.35;1.80;;;;;;;12.48;92.92;100785.31;5203688;28;20048;-72
2022/11/02 05:13:11;;;;;;;7.60;1.60;;;;;;;12.53;92.07;100788.63;5202619;28;20475;-74
2022/11/02 05:15:41;;;;;;;10.57;1.77;;;;;;;12.43;93.68;100794.28;5203153;28;20021;-73
2022/11/02 05:18:11;;;;;;;9.85;1.60;;;;;;;12.50;92.66;100790.50;5203116;28;20898;-73
2022/11/02 05:20:42;;;;;;;9.00;1.90;;;;;;;12.51;92.05;100787.84;5203598;28;20503;-73
2022/11/02 05:23:12;;;;;;;8.27;1.58;;;;;;;12.38;92.86;100789.22;5203139;28;20044;-74
2022/11/02 05:25:51;;;;;;;9.48;1.60;;;;;;;12.33;92.59;100791.16;5203040;28;20270;-73
2022/11/02 05:28:22;;;;;;;10.13;1.50;;;;;;;12.29;93.36;100797.44;5202904;28;20398;-73
2022/11/02 05:30:53;;;;;;;10.52;1.65;;;;;;;12.23;93.75;100799.44;5199348;28;20033;-73
2022/11/02 05:33:24;;;;;;;8.45;1.48;;;;;;;12.11;94.55;100795.53;5203204;28;20104;-73
2022/11/02 05:35:56;;;;;;;9.52;1.40;;;;;;;12.10;93.83;100796.44;5203124;28;20464;-73
2022/11/02 05:38:27;;;;;;;9.25;1.70;;;;;;;11.98;94.71;100791.66;5202370;28;20030;-72
2022/11/02 05:40:58;;;;;;;7.55;1.98;;;;;;;12.04;94.91;100791.44;5200931;28;20272;-73
2022/11/02 05:43:28;;;;;;;8.63;1.40;;;;;;;12.03;95.28;100787.13;5200872;28;20037;-73
2022/11/02 05:46:01;;;;;;;7.20;1.23;;;;;;;11.96;94.85;100793.47;5202514;28;20030;-73
2022/11/02 05:48:32;;;;;;;10.82;1.70;;;;;;;11.83;96.41;100794.88;5202200;28;20033;-73
2022/11/02 05:51:03;;;;;;;11.27;2.03;;;;;;;11.76;96.20;100797.78;5217130;28;20033;-73
2022/11/02 05:53:37;;;;;;;9.80;1.55;;;;;;;11.77;96.82;100797.69;5202808;28;20025;-73
2022/11/02 05:56:09;;;;;;;12.32;2.00;;;;;;;11.71;97.11;100816.25;5202607;28;20053;-73
2022/11/02 05:58:39;;;;;;;10.73;1.58;;;;;;;11.69;96.73;100815.47;5202116;28;20021;-73
2022/11/02 06:01:10;;;;;;;8.30;1.55;;;;;;;11.66;97.20;100817.34;5201811;28;20056;-73
2022/11/02 06:03:40;;;;;;;9.95;1.65;;;;;;;11.58;97.69;100817.59;5202601;28;20467;-74
2022/11/02 06:06:11;;;;;;;9.15;1.40;;;;;;;11.68;96.66;100818.13;5201881;28;20025;-73
2022/11/02 06:08:41;;;;;;;9.82;1.70;;;;;;;11.56;98.57;100819.44;5199984;28;20025;-73
2022/11/02 06:11:13;;;;;;;12.13;1.77;;;;;;;11.62;97.61;100824.44;5201984;28;20130;-73
2022/11/02 06:13:43;;;;;;;10.80;1.60;;;;;;;11.52;98.71;100827.41;5200802;28;20272;-73
2022/11/02 06:16:14;;;;;;;14.48;2.00;;;;;;;11.51;98.50;100821.34;5201940;28;20075;-73
2022/11/02 06:18:44;;;;;;;6.43;1.45;;;;;;;11.60;98.56;100823.63;5202314;28;20079;-73
2022/11/02 06:21:15;;;;;;;10.45;1.45;;;;;;;11.46;99.59;100819.78;5201907;28;20091;-73
2022/11/02 06:23:47;;;;;;;8.82;1.63;;;;;;;11.52;98.88;100824.78;5201790;28;20390;-73
2022/11/02 06:26:17;;;;;;;11.60;1.77;;;;;;;11.47;98.95;100824.94;5201379;28;20466;-73
2022/11/02 06:28:47;;;;;;;10.77;2.13;;;;;;;11.41;100.00;100825.16;5201794;28;20029;-73
2022/11/02 06:31:18;;;;;;;12.35;1.60;;;;;;;11.40;100.00;100828.69;5201436;28;20438;-73
2022/11/02 06:33:48;;;;;;;12.45;1.90;;;;;;;11.49;99.97;100817.06;5200032;28;20025;-74
2022/11/02 06:36:18;;;;;;;11.57;1.50;;;;;;;11.49;99.70;100823.16;5199622;28;20511;-73
2022/11/02 06:38:50;;;;;;;9.05;1.40;;;;;;;11.44;100.00;100822.44;5200418;28;20029;-73
2022/11/02 06:41:20;;;;;;;10.35;1.60;;;;;;;11.41;100.00;100827.78;5199475;28;20298;-73
2022/11/02 06:43:50;;;;;;;8.77;1.40;;;;;;;11.46;100.00;100831.09;5200512;28;20017;-73
2022/11/02 06:46:20;;;;;;;9.15;1.60;;;;;;;11.37;100.00;100827.94;5200087;28;20029;-73
2022/11/02 06:48:51;;;;;;;15.40;1.88;;;;;;;11.43;100.00;100825.13;5200177;28;20029;-73
2022/11/02 06:51:21;;;;;;;24.40;8.98;;;;;;;11.52;100.00;100835.25;5201204;28;20029;-73
2022/11/02 06:53:51;;;;;;;11.35;2.25;;;;;;;11.53;100.00;100837.84;5201911;28;20103;-73
2022/11/02 06:56:21;;;;;;;10.55;2.17;;;;;;;11.65;100.00;100832.16;5198744;28;20025;-72
2022/11/02 06:58:52;;;;;;;10.75;1.50;;;;;;;11.59;100.00;100829.78;5201172;28;20546;-73
2022/11/02 07:01:22;;;;;;;14.90;1.77;;;;;;;11.74;99.13;100842.34;5201475;28;20445;-72
2022/11/02 07:03:52;;;;;;;12.27;1.80;;;;;;;11.76;99.73;100837.88;5196963;28;20033;-73
2022/11/02 07:06:22;;;;;;;9.55;1.63;;;;;;;11.81;100.00;100845.59;5200923;28;20021;-73
2022/11/02 07:08:54;;;;;;;10.23;1.70;;;;;;;11.90;99.44;100851.34;5200866;28;20029;-73
2022/11/02 07:11:24;;;;;;;16.35;2.78;;;;;;;12.04;99.69;100849.06;5200813;28;20112;-73
2022/11/02 07:13:55;;;;;;;12.60;2.10;;;;;;;12.02;98.42;100861.38;5199546;28;20466;-73
2022/11/02 07:16:25;;;;;;;10.77;1.92;;;;;;;12.11;98.65;100860.19;5199547;28;20042;-73
2022/11/02 07:18:55;;;;;;;9.23;1.63;;;;;;;12.27;96.77;100862.16;5200780;28;20025;-73
2022/11/02 07:21:26;;;;;;;8.65;1.73;;;;;;;12.37;96.90;100874.00;5182952;28;20029;-73
2022/11/02 07:23:56;;;;;;;13.95;2.05;;;;;;;12.42;96.16;100864.19;5200992;28;20029;-73
2022/11/02 07:26:27;;;;;;;10.85;2.00;;;;;;;12.27;96.52;100864.78;5197687;28;20036;-72
2022/11/02 07:28:57;;;;;;;12.05;1.77;;;;;;;12.41;95.31;100878.22;5200679;28;20045;-73
2022/11/02 07:31:28;;;;;;;8.23;1.13;;;;;;;12.61;95.77;100873.06;5201357;28;20068;-73
2022/11/02 07:33:58;;;;;;;9.90;1.50;;;;;;;12.70;95.46;100891.06;5200154;28;20546;-73
2022/11/02 07:36:28;;;;;;;10.07;1.70;;;;;;;12.98;94.40;100889.94;5199488;28;20037;-73
2022/11/02 07:38:58;;;;;;;7.53;1.50;;;;;;;13.22;92.27;100891.56;5199319;28;20601;-73
2022/11/02 07:41:29;;;;;;;11.48;1.90;;;;;;;13.48;90.84;100891.34;5199855;28;20070;-73
2022/11/02 07:43:59;;;;;;;9.32;1.90;;;;;;;14.07;87.79;100899.25;5199966;28;20501;-73
2022/11/02 07:46:29;;;;;;;8.98;1.60;;;;;;;14.40;87.08;100889.88;5199090;28;20037;-73
2022/11/02 07:48:59;;;;;;;12.07;1.70;;;;;;;14.80;85.13;100889.72;5199678;28;20582;-73
2022/11/02 07:51:30;;;;;;;12.15;2.05;;;;;;;15.43;81.52;100896.19;5199890;28;20021;-73
2022/11/02 07:54:01;;;;;;;7.93;1.60;;;;;;;16.20;78.27;100894.78;5200354;28;20021;-73
2022/11/02 07:56:31;;;;;;;7.63;1.63;;;;;;;16.21;78.32;100901.78;5199861;28;20025;-73
2022/11/02 07:59:02;;;;;;;8.13;1.55;;;;;;;15.89;80.11;100908.72;5200301;28;20040;-74
2022/11/02 08:01:32;;;;;;;8.43;1.90;;;;;;;15.66;80.27;100916.09;5198952;28;20057;-73
2022/11/02 08:04:02;;;;;;;8.30;1.60;;;;;;;16.00;79.65;100903.75;5199400;28;20032;-73
2022/11/02 08:06:33;;;;;;;8.05;1.92;;;;;;;16.07;77.19;100899.84;5199149;28;20272;-73
2022/11/02 08:09:04;;;;;;;7.40;1.60;;;;;;;16.73;75.75;100893.59;5198732;28;20433;-74
2022/11/02 08:11:34;;;;;;;9.52;1.98;;;;;;;16.19;78.34;100901.84;5200169;28;20033;-74
2022/11/02 08:14:04;;;;;;;10.55;1.80;;;;;;;16.11;78.84;100898.78;5199877;28;20097;-73
2022/11/02 08:16:35;;;;;;;9.35;1.60;;;;;;;14.98;81.21;100905.47;5199373;28;20025;-73
2022/11/02 08:19:05;;;;;;;10.23;1.83;;;;;;;14.41;84.20;100900.31;5199856;28;20362;-72
2022/11/02 08:21:35;;;;;;;9.88;1.80;;;;;;;14.44;84.06;100904.59;5199717;28;20032;-73
2022/11/02 08:24:06;;;;;;;7.63;1.58;;;;;;;14.67;85.50;100897.34;5199808;28;20032;-73
2022/11/02 08:26:36;;;;;;;11.15;1.98;;;;;;;15.95;80.48;100897.88;5199599;28;20026;-73
2022/11/02 08:29:07;;;;;;;8.07;1.53;;;;;;;16.68;76.07;100893.00;5198378;28;20401;-73
2022/11/02 08:31:37;;;;;;;9.35;1.55;;;;;;;16.10;77.71;100873.34;5200394;28;20272;-72
2022/11/02 08:34:08;;;;;;;9.95;1.80;;;;;;;15.37;80.44;100903.56;5199818;28;20029;-74
2022/11/02 08:36:39;;;;;;;9.55;1.50;;;;;;;14.57;83.48;100901.31;5199583;28;20037;-74
2022/11/02 08:39:09;;;;;;;8.80;1.60;;;;;;;14.69;83.59;100906.00;5202824;28;20059;-74
2022/11/02 08:41:39;;;;;;;6.10;1.70;;;;;;;14.66;84.42;100902.66;5202956;28;20033;-73
2022/11/02 08:44:10;;;;;;;6.23;1.37;;;;;;;14.86;84.94;100927.94;5203563;28;20032;-74
2022/11/02 08:46:40;;;;;;;10.70;1.90;;;;;;;14.94;84.38;100915.28;5203666;28;20283;-74
2022/11/02 08:49:10;;;;;;;9.40;1.83;;;;;;;15.20;84.57;100922.78;5203407;28;20371;-73
2022/11/02 08:51:40;;;;;;;10.32;2.28;;;;;;;15.50;82.37;100910.75;5202624;28;20306;-73
2022/11/02 08:54:11;;;;;;;11.13;1.83;;;;;;;15.28;81.55;100909.22;5202636;28;20087;-74
2022/11/02 08:56:41;;;;;;;8.93;1.85;;;;;;;15.32;81.74;100905.56;5203068;28;20295;-73
2022/11/02 08:59:12;;;;;;;10.70;1.85;;;;;;;15.15;81.24;100919.53;5203552;28;20097;-73
2022/11/02 09:01:42;;;;;;;10.65;1.90;;;;;;;15.55;82.36;100900.81;5203293;28;20036;-73
2022/11/02 09:04:12;;;;;;;9.00;1.70;;;;;;;15.60;81.29;100904.09;5221434;23;20037;-77
2022/11/02 09:06:43;;;;;;;6.90;1.60;;;;;;;15.39;82.13;100910.44;5221778;28;20302;-78
2022/11/02 09:09:13;;;;;;;11.00;1.65;;;;;;;15.23;82.16;100914.75;5224252;28;20025;-78
2022/11/02 09:11:43;;;;;;;10.27;2.15;;;;;;;15.24;82.23;100912.94;5225136;28;20503;-78
2022/11/02 09:14:13;;;;;;;10.63;1.92;;;;;;;15.05;82.72;100917.41;5224222;28;20035;-77
2022/11/02 09:16:44;;;;;;;11.60;2.20;;;;;;;14.59;82.70;100923.13;5224428;28;20021;-78
2022/11/02 09:19:14;;;;;;;10.32;2.35;;;;;;;14.53;84.03;100918.16;5214556;28;20037;-77
2022/11/02 09:21:44;;;;;;;11.67;2.60;;;;;;;14.76;84.66;100928.47;5224659;28;20021;-78
2022/11/02 09:24:15;;;;;;;13.25;2.83;;;;;;;14.60;84.06;100939.78;5224526;28;20275;-77
2022/11/02 09:26:47;;;;;;;12.52;2.40;;;;;;;14.45;83.80;100940.47;5224470;28;20264;-78
2022/11/02 09:29:17;;;;;;;9.45;1.92;;;;;;;14.25;84.78;100937.91;5214277;28;20027;-78
2022/11/02 09:31:47;;;;;;;12.00;2.13;;;;;;;14.45;84.77;100933.44;5223622;28;20120;-78
2022/11/02 09:34:18;;;;;;;9.63;2.20;;;;;;;14.42;84.74;100946.72;5223261;28;20028;-78
2022/11/02 09:36:48;;;;;;;13.88;2.10;;;;;;;14.37;83.94;100950.47;5212224;28;20396;-78
2022/11/02 09:39:19;;;;;;;11.10;2.05;;;;;;;14.55;83.42;100958.41;5222053;28;20036;-76
2022/11/02 09:42:16;;;;;;;11.90;1.92;;;;;;;14.52;83.31;100955.91;5223617;28;20036;-75
2022/11/02 09:44:53;;;;;;;10.30;1.83;;;;;;;14.47;82.98;100959.66;5221302;28;20308;-75
2022/11/02 09:47:28;;;;;;;9.38;1.88;;;;;;;14.50;83.18;100959.53;5218271;28;20044;-75
2022/11/02 09:50:01;;;;;;;9.40;1.95;;;;;;;14.58;82.64;100960.03;5221809;28;20024;-75
2022/11/02 09:52:37;;;;;;;8.90;1.70;;;;;;;14.67;83.28;100959.59;5223027;28;20035;-75
2022/11/02 09:55:17;;;;;;;8.05;1.58;;;;;;;14.75;83.39;100960.97;5223078;28;20032;-75
2022/11/02 09:57:52;;;;;;;9.52;1.80;;;;;;;14.58;82.71;100967.94;5223190;28;20080;-75
2022/11/02 10:00:22;;;;;;;11.77;1.77;;;;;;;14.67;82.16;100967.50;5219228;28;20027;-75
2022/11/02 10:03:08;;;;;;;9.55;1.70;;;;;;;14.70;82.02;100973.50;5223222;28;20403;-75
2022/11/02 10:05:57;;;;;;;6.95;1.63;;;;;;;14.83;81.52;100969.38;5213136;28;20178;-75
2022/11/02 10:08:30;;;;;;;12.00;2.15;;;;;;;15.04;80.45;100977.09;5220434;28;20491;-75
2022/11/02 10:11:31;;;;;;;12.82;1.90;;;;;;;15.30;79.14;100975.88;5223605;28;20343;-75
2022/11/02 10:14:14;;;;;;;8.35;1.55;;;;;;;15.30;78.20;100981.16;5219651;28;20308;-75
2022/11/02 10:17:11;;;;;;;8.02;1.33;;;;;;;15.12;79.80;100969.69;5223011;28;20017;-75
2022/11/02 10:19:49;;;;;;;8.35;1.67;;;;;;;15.05;77.59;100989.31;5221224;28;20259;-75
2022/11/02 10:22:23;;;;;;;5.22;1.20;;;;;;;15.18;76.55;100987.81;5222239;28;20036;-75
2022/11/02 10:24:56;;;;;;;6.20;1.20;;;;;;;15.45;76.50;100977.78;5218724;28;20035;-75
2022/11/02 10:27:32;;;;;;;7.85;1.40;;;;;;;15.53;75.08;100989.63;5221348;28;20112;-75
2022/11/02 10:30:18;;;;;;;7.90;1.60;;;;;;;15.73;73.14;100973.69;5222522;28;20037;-75
2022/11/02 10:32:53;;;;;;;7.50;1.00;;;;;;;15.65;73.77;100975.88;5210896;28;20060;-78
2022/11/02 10:35:37;;;;;;;8.60;1.30;;;;;;;15.67;73.03;100984.53;5220373;28;20588;-78
2022/11/02 10:38:19;;;;;;;7.97;1.17;;;;;;;15.59;72.36;100984.09;5220477;28;20033;-77
2022/11/02 10:41:11;;;;;;;9.20;1.20;;;;;;;15.55;73.60;100987.78;5222442;28;20089;-78
2022/11/02 10:44:05;;;;;;;7.00;1.25;;;;;;;15.36;73.36;100989.59;5220818;28;20234;-77
2022/11/02 10:46:56;;;;;;;7.78;1.40;;;;;;;15.34;73.66;100993.25;5219165;28;20044;-77
2022/11/02 10:50:04;;;;;;;7.60;1.48;;;;;;;15.46;73.90;100993.50;5218857;28;20232;-77
2022/11/02 10:52:37;;;;;;;7.07;1.70;;;;;;;15.30;74.16;100999.56;5219750;28;20112;-77
2022/11/02 10:55:24;;;;;;;6.30;1.40;;;;;;;15.37;73.47;101004.47;5222689;28;20036;-78
2022/11/02 10:57:58;;;;;;;7.15;1.40;;;;;;;15.47;73.88;101011.03;5217879;28;20052;-78
2022/11/02 11:00:33;;;;;;;8.07;1.35;;;;;;;15.21;73.87;101003.47;5221128;28;20104;-78
2022/11/02 11:03:12;;;;;;;8.33;1.40;;;;;;;15.00;73.75;101017.66;5221523;28;20090;-77
2022/11/02 11:05:48;;;;;;;5.70;1.30;;;;;;;15.14;75.07;101012.59;5220938;28;20442;-77
2022/11/02 11:08:34;;;;;;;6.18;1.20;;;;;;;15.08;74.71;101012.91;5207085;28;20112;-77
2022/11/02 11:11:23;;;;;;;;;;;;;;;14.95;76.04;101019.66;5219248;28;20067;-77
2022/11/02 11:14:02;;;;;;;5.97;1.23;;;;;;;15.02;75.57;101012.34;5217302;28;19935;-77
2022/11/02 11:16:36;;;;;;;7.95;1.20;;;;;;;14.99;72.45;101013.31;5220970;28;20501;-78
2022/11/02 11:19:22;;;;;;;8.75;1.50;;;;;;;15.02;71.95;101015.81;5221040;28;20029;-78
2022/11/02 11:21:52;;;;;;;9.48;1.50;;;;;;;14.94;71.18;101015.31;5217172;28;20347;-77
2022/11/02 11:24:28;;;;;;;7.43;1.20;;;;;;;14.90;70.10;101019.03;5220191;28;20433;-78
2022/11/02 11:27:16;;;;;;;3.72;1.00;;;;;;;14.88;70.26;101036.63;5221264;28;20025;-79
2022/11/02 11:29:55;;;;;;;6.18;1.10;;;;;;;14.77;69.33;101026.69;5221180;28;20139;-77
2022/11/02 11:32:28;;;;;;;7.55;1.20;;;;;;;14.75;68.57;101031.16;5207298;28;20025;-77
2022/11/02 11:35:02;;;;;;;9.80;1.30;;;;;;;14.56;67.81;101030.28;5208268;28;20101;-78
2022/11/02 11:37:33;;;;;;;8.80;1.90;;;;;;;14.51;68.74;101029.63;5220874;28;20630;-77
2022/11/02 11:40:15;;;;;;;5.80;1.13;;;;;;;14.45;69.75;101043.06;5221360;28;20110;-78
2022/11/02 11:42:52;;;;;;;7.60;1.35;;;;;;;14.46;70.73;101047.38;5221722;28;20035;-77
2022/11/02 11:45:25;;;;;;;5.85;1.10;;;;;;;14.48;70.47;101046.41;5216916;28;20508;-77
2022/11/02 11:48:03;;;;;;;8.77;1.10;;;;;;;14.79;70.71;101043.25;5210952;28;20086;-77
2022/11/02 11:50:34;;;;;;;7.10;1.13;;;;;;;15.04;69.98;101037.63;5221212;28;20028;-77
2022/11/02 11:53:24;;;;;;;7.05;1.25;;;;;;;15.28;69.18;101035.66;5220999;28;20098;-78
2022/11/02 11:55:59;;;;;;;6.85;1.20;;;;;;;15.61;70.77;101032.28;5217294;28;20049;-77
2022/11/02 11:58:31;;;;;;;5.90;1.00;;;;;;;15.55;67.92;101024.66;5220361;28;20033;-74
2022/11/02 12:01:11;;;;;;;5.60;1.15;;;;;;;15.63;67.26;101027.81;5221568;28;20036;-75
2022/11/02 12:03:52;;;;;;;8.63;1.45;;;;;;;15.63;67.09;101025.16;5220390;28;20032;-75
2022/11/02 12:06:40;;;;;;;4.38;1.02;;;;;;;15.59;65.92;101014.84;5217998;28;20029;-74
2022/11/02 12:09:35;;;;;;;5.22;1.23;;;;;;;15.43;66.64;101030.56;5220658;28;20060;-75
2022/11/02 12:12:29;;;;;;;5.72;1.13;;;;;;;15.40;65.72;101021.94;5218325;28;20110;-75
2022/11/02 12:15:06;;;;;;;12.93;1.63;;;;;;;15.26;67.20;101021.69;5218020;28;20028;-75
2022/11/02 12:17:57;;;;;;;8.43;1.05;;;;;;;15.21;66.64;101028.97;5220398;28;20121;-75
2022/11/02 12:21:09;;;;;;;3.83;0.85;;;;;;;15.03;67.75;101035.94;5207167;28;20021;-76